createdAt,value
2018-03-08T00:01:24.396Z,3.00
2018-03-08T00:03:51.897Z,3.00
2018-03-08T00:06:19.620Z,2.90
2018-03-08T00:08:47.215Z,2.90
2018-03-08T00:11:15.758Z,2.80
2018-03-08T00:13:43.255Z,2.80
2018-03-08T00:16:10.800Z,2.80
2018-03-08T00:18:38.348Z,2.80
2018-03-08T00:21:05.896Z,2.80
2018-03-08T00:23:33.411Z,2.90
2018-03-08T00:26:00.912Z,2.90
2018-03-08T00:28:28.567Z,2.90
2018-03-08T00:30:56.408Z,2.90
2018-03-08T00:33:24.100Z,2.90
2018-03-08T00:35:51.608Z,2.90
2018-03-08T00:38:19.192Z,2.70
2018-03-08T00:40:46.679Z,2.80
2018-03-08T00:43:14.189Z,2.80
2018-03-08T00:45:42.000Z,2.80
2018-03-08T00:48:09.781Z,2.80
2018-03-08T00:50:37.284Z,2.80
2018-03-08T00:53:05.008Z,2.80
2018-03-08T00:55:32.455Z,2.70
2018-03-08T00:58:00.071Z,2.70
2018-03-08T01:00:27.627Z,2.80
2018-03-08T01:02:55.415Z,2.80
2018-03-08T01:05:22.920Z,2.80
2018-03-08T01:07:50.455Z,2.80
2018-03-08T01:10:17.992Z,2.90
2018-03-08T01:12:45.508Z,2.90
2018-03-08T01:15:13.015Z,2.90
2018-03-08T01:17:40.528Z,2.80
2018-03-08T01:20:08.242Z,2.80
2018-03-08T01:22:35.764Z,2.80
2018-03-08T01:25:03.452Z,2.80
2018-03-08T01:27:31.561Z,2.80
2018-03-08T01:29:59.189Z,2.80
2018-03-08T01:32:26.683Z,2.80
2018-03-08T01:34:54.196Z,2.80
2018-03-08T01:37:21.699Z,2.80
2018-03-08T01:39:49.420Z,2.90
2018-03-08T01:42:16.919Z,2.80
2018-03-08T01:44:44.631Z,2.80
2018-03-08T01:47:12.135Z,2.80
2018-03-08T01:49:39.863Z,2.80
2018-03-08T01:52:12.183Z,2.80
2018-03-08T01:54:39.987Z,2.70
2018-03-08T01:57:08.335Z,2.70
2018-03-08T01:59:35.839Z,2.70
2018-03-08T02:02:03.951Z,2.70
2018-03-08T02:04:31.591Z,2.70
2018-03-08T02:06:59.115Z,2.80
2018-03-08T02:09:26.632Z,2.80
2018-03-08T02:11:54.308Z,2.80
2018-03-08T02:14:22.003Z,2.80
2018-03-08T02:16:49.512Z,2.80
2018-03-08T02:19:17.020Z,2.80
2018-03-08T02:21:44.533Z,2.80
2018-03-08T02:24:12.204Z,2.80
2018-03-08T02:26:39.708Z,2.80
2018-03-08T02:29:09.013Z,2.70
2018-03-08T02:31:36.783Z,2.70
2018-03-08T02:34:04.520Z,2.80
2018-03-08T02:36:32.012Z,2.80
2018-03-08T02:38:59.519Z,2.80
2018-03-08T02:41:27.192Z,2.80
2018-03-08T02:43:54.956Z,2.80
2018-03-08T02:46:22.461Z,2.80
2018-03-08T02:48:50.012Z,2.90
2018-03-08T02:51:18.288Z,2.80
2018-03-08T02:53:46.007Z,2.80
2018-03-08T02:56:13.549Z,2.80
2018-03-08T02:58:41.191Z,2.80
2018-03-08T03:01:08.989Z,2.80
2018-03-08T03:03:36.626Z,2.80
2018-03-08T03:06:04.131Z,2.80
2018-03-08T03:08:32.151Z,2.80
2018-03-08T03:10:59.659Z,2.80
2018-03-08T03:13:27.936Z,2.80
2018-03-08T03:15:55.576Z,2.80
2018-03-08T03:18:23.335Z,2.80
2018-03-08T03:20:51.079Z,2.80
2018-03-08T03:23:18.811Z,2.80
2018-03-08T03:25:46.324Z,2.80
2018-03-08T03:28:14.243Z,2.80
2018-03-08T03:30:41.757Z,2.80
2018-03-08T03:33:09.255Z,2.80
2018-03-08T03:35:37.065Z,2.80
2018-03-08T03:38:04.577Z,2.80
2018-03-08T03:40:32.079Z,2.80
2018-03-08T03:42:59.590Z,2.70
2018-03-08T03:45:27.863Z,2.70
2018-03-08T03:47:55.546Z,2.60
2018-03-08T03:50:23.339Z,2.70
2018-03-08T03:52:50.846Z,2.70
2018-03-08T03:55:18.559Z,2.70
2018-03-08T03:57:46.072Z,2.70
2018-03-08T04:00:13.800Z,2.70
2018-03-08T04:02:44.028Z,2.70
2018-03-08T04:05:11.740Z,2.70
2018-03-08T04:07:39.455Z,2.70
2018-03-08T04:10:07.727Z,2.70
2018-03-08T04:12:35.542Z,2.70
2018-03-08T04:15:03.040Z,2.70
2018-03-08T04:17:30.592Z,2.60
2018-03-08T04:19:58.098Z,2.60
2018-03-08T04:22:25.675Z,2.50
2018-03-08T04:24:53.132Z,2.50
2018-03-08T04:27:21.024Z,2.50
2018-03-08T04:29:48.803Z,2.50
2018-03-08T04:32:16.547Z,2.60
2018-03-08T04:34:44.047Z,2.40
2018-03-08T04:37:11.579Z,2.50
2018-03-08T04:39:39.200Z,2.40
2018-03-08T04:42:06.726Z,2.40
2018-03-08T04:44:34.456Z,2.50
2018-03-08T04:47:01.975Z,2.50
2018-03-08T04:49:29.641Z,2.50
2018-03-08T04:51:57.438Z,2.50
2018-03-08T04:54:24.940Z,2.60
2018-03-08T04:56:53.208Z,2.60
2018-03-08T04:59:20.724Z,2.50
2018-03-08T05:01:48.287Z,2.50
2018-03-08T05:04:15.783Z,2.50
2018-03-08T05:06:44.075Z,2.50
2018-03-08T05:09:11.587Z,2.50
2018-03-08T05:11:39.264Z,2.40
2018-03-08T05:14:06.768Z,2.50
2018-03-08T05:16:34.374Z,2.40
2018-03-08T05:19:01.928Z,2.30
2018-03-08T05:21:30.935Z,2.40
2018-03-08T05:23:58.451Z,2.40
2018-03-08T05:26:25.959Z,2.40
2018-03-08T05:28:54.241Z,2.50
2018-03-08T05:31:21.959Z,2.50
2018-03-08T05:33:49.474Z,2.50
2018-03-08T05:36:17.011Z,2.50
2018-03-08T05:38:45.279Z,2.60
2018-03-08T05:41:13.007Z,2.50
2018-03-08T05:43:40.775Z,2.50
2018-03-08T05:46:08.275Z,2.60
2018-03-08T05:48:35.829Z,2.50
2018-03-08T05:51:03.322Z,2.50
2018-03-08T05:53:30.815Z,2.50
2018-03-08T05:55:58.336Z,2.50
2018-03-08T05:58:25.834Z,2.50
2018-03-08T06:00:53.357Z,2.50
2018-03-08T06:03:20.863Z,2.60
2018-03-08T06:05:48.375Z,2.60
2018-03-08T06:08:16.097Z,2.70
2018-03-08T06:10:44.360Z,2.60
2018-03-08T06:13:11.887Z,2.60
2018-03-08T06:15:39.446Z,2.60
2018-03-08T06:18:07.323Z,2.60
2018-03-08T06:20:34.828Z,2.70
2018-03-08T06:23:02.331Z,2.60
2018-03-08T06:25:29.982Z,2.60
2018-03-08T06:27:57.472Z,2.70
2018-03-08T06:30:25.211Z,2.70
2018-03-08T06:32:52.744Z,2.90
2018-03-08T06:35:20.238Z,3.10
2018-03-08T06:37:47.904Z,3.40
2018-03-08T06:40:15.416Z,3.50
2018-03-08T06:42:42.919Z,3.30
2018-03-08T06:45:10.416Z,3.20
2018-03-08T06:47:37.920Z,3.20
2018-03-08T06:50:05.428Z,3.20
2018-03-08T06:52:32.936Z,3.20
2018-03-08T06:55:00.439Z,3.20
2018-03-08T06:57:28.164Z,3.20
2018-03-08T06:59:55.680Z,3.20
2018-03-08T07:02:23.384Z,3.30
2018-03-08T07:04:52.412Z,3.30
2018-03-08T07:07:19.920Z,3.30
2018-03-08T07:09:47.475Z,3.30
2018-03-08T07:12:15.728Z,3.30
2018-03-08T07:14:43.262Z,3.20
2018-03-08T07:17:11.752Z,3.30
2018-03-08T07:19:39.260Z,3.30
2018-03-08T07:22:06.824Z,3.40
2018-03-08T07:24:34.349Z,3.50
2018-03-08T07:27:01.887Z,3.40
2018-03-08T07:29:29.404Z,3.40
2018-03-08T07:31:56.939Z,3.40
2018-03-08T07:34:24.480Z,3.40
2018-03-08T07:36:51.975Z,3.50
2018-03-08T07:39:19.515Z,5.00
2018-03-08T07:41:47.024Z,5.00
2018-03-08T07:44:14.780Z,4.00
2018-03-08T07:46:42.296Z,3.70
2018-03-08T07:49:09.783Z,3.60
2018-03-08T07:51:37.295Z,3.40
2018-03-08T07:54:04.896Z,3.30
2018-03-08T07:56:32.615Z,3.20
2018-03-08T07:59:00.118Z,3.20
2018-03-08T08:01:27.847Z,3.20
2018-03-08T08:03:55.619Z,3.20
2018-03-08T08:06:35.086Z,3.20
2018-03-08T08:09:08.346Z,3.20
2018-03-08T08:11:35.860Z,3.30
2018-03-08T08:14:03.542Z,3.30
2018-03-08T08:16:31.082Z,3.40
2018-03-08T08:18:58.583Z,3.30
2018-03-08T08:21:26.119Z,3.20
2018-03-08T08:23:53.699Z,3.30
2018-03-08T08:26:21.210Z,3.20
2018-03-08T08:28:48.896Z,3.30
2018-03-08T08:31:16.804Z,3.30
2018-03-08T08:33:44.303Z,3.30
2018-03-08T08:36:11.944Z,3.40
2018-03-08T08:38:39.455Z,3.30
2018-03-08T08:41:07.138Z,3.30
2018-03-08T08:43:34.657Z,3.30
2018-03-08T08:46:02.171Z,3.40
2018-03-08T08:48:29.679Z,3.50
2018-03-08T08:50:57.184Z,3.50
2018-03-08T08:53:24.710Z,3.60
2018-03-08T08:55:52.475Z,3.70
2018-03-08T08:58:19.980Z,3.70
2018-03-08T09:00:47.696Z,3.70
2018-03-08T09:03:15.212Z,3.80
2018-03-08T09:05:42.712Z,3.80
2018-03-08T09:08:10.232Z,3.70
2018-03-08T09:10:37.791Z,3.60
2018-03-08T09:13:05.296Z,3.60
2018-03-08T09:15:33.051Z,3.70
2018-03-08T09:18:00.552Z,3.80
2018-03-08T09:20:28.280Z,3.90
2018-03-08T09:22:55.798Z,3.90
2018-03-08T09:25:23.491Z,3.90
2018-03-08T09:27:51.000Z,4.00
2018-03-08T09:30:18.674Z,3.90
2018-03-08T09:32:46.180Z,4.00
2018-03-08T09:35:13.685Z,4.00
2018-03-08T09:37:41.196Z,4.00
2018-03-08T09:40:08.692Z,4.00
2018-03-08T09:42:36.968Z,4.10
2018-03-08T09:45:04.472Z,4.10
2018-03-08T09:47:32.127Z,4.20
2018-03-08T09:49:59.896Z,4.20
2018-03-08T09:52:27.427Z,4.20
2018-03-08T09:54:55.128Z,4.20
2018-03-08T09:57:22.657Z,4.20
2018-03-08T09:59:50.312Z,4.20
2018-03-08T10:02:17.843Z,4.20
2018-03-08T10:04:45.352Z,4.20
2018-03-08T10:07:12.852Z,4.30
2018-03-08T10:09:41.140Z,4.20
2018-03-08T10:12:08.651Z,4.20
2018-03-08T10:14:36.181Z,4.20
2018-03-08T10:17:04.117Z,4.30
2018-03-08T10:19:31.859Z,4.30
2018-03-08T10:21:59.361Z,4.40
2018-03-08T10:24:26.868Z,4.50
2018-03-08T10:26:54.520Z,4.50
2018-03-08T10:29:23.527Z,4.60
2018-03-08T10:31:51.036Z,4.60
2018-03-08T10:34:18.728Z,4.60
2018-03-08T10:36:46.221Z,4.60
2018-03-08T10:44:08.953Z,4.80
2018-03-08T10:46:36.508Z,4.90
2018-03-08T10:49:04.387Z,4.90
2018-03-08T10:51:31.884Z,5.00
2018-03-08T10:53:59.400Z,5.10
2018-03-08T10:56:27.015Z,5.30
2018-03-08T10:58:54.529Z,5.40
2018-03-08T11:01:25.867Z,5.40
2018-03-08T11:03:55.159Z,5.30
2018-03-08T11:06:34.531Z,5.50
2018-03-08T11:09:02.803Z,5.60
2018-03-08T11:11:30.328Z,5.60
2018-03-08T11:13:57.980Z,5.70
2018-03-08T11:16:25.484Z,5.80
2018-03-08T11:18:53.210Z,5.80
2018-03-08T11:21:20.720Z,5.70
2018-03-08T11:23:48.227Z,5.50
2018-03-08T11:26:15.747Z,5.60
2018-03-08T11:28:43.299Z,5.60
2018-03-08T11:31:11.028Z,5.70
2018-03-08T11:33:38.539Z,5.70
2018-03-08T11:36:08.242Z,5.80
2018-03-08T11:38:35.934Z,6.00
2018-03-08T11:41:03.695Z,6.00
2018-03-08T11:43:31.196Z,6.10
2018-03-08T11:45:58.715Z,6.00
2018-03-08T11:48:26.375Z,6.00
2018-03-08T11:50:53.888Z,6.10
2018-03-08T11:53:21.388Z,6.10
2018-03-08T11:55:48.898Z,6.20
2018-03-08T11:58:17.167Z,6.30
2018-03-08T12:00:44.885Z,6.30
2018-03-08T12:03:12.648Z,6.40
2018-03-08T12:05:40.855Z,6.60
2018-03-08T12:08:09.123Z,6.80
2018-03-08T12:10:36.636Z,6.80
2018-03-08T12:13:04.318Z,6.60
2018-03-08T12:15:31.877Z,6.70
2018-03-08T12:17:59.618Z,6.60
2018-03-08T12:20:27.302Z,6.70
2018-03-08T12:22:55.077Z,6.80
2018-03-08T12:25:22.573Z,6.80
2018-03-08T12:27:50.110Z,6.90
2018-03-08T12:30:17.596Z,7.00
2018-03-08T12:32:45.112Z,7.10
2018-03-08T12:35:13.383Z,7.20
2018-03-08T12:37:41.187Z,7.20
2018-03-08T12:40:08.706Z,7.30
2018-03-08T12:42:36.222Z,7.60
2018-03-08T12:45:03.731Z,7.70
2018-03-08T12:47:31.545Z,7.90
2018-03-08T12:49:59.183Z,7.80
2018-03-08T12:52:26.703Z,8.00
2018-03-08T12:54:54.459Z,8.10
2018-03-08T12:57:22.227Z,8.10
2018-03-08T12:59:49.739Z,8.00
2018-03-08T13:02:17.440Z,8.10
2018-03-08T13:04:44.939Z,8.30
2018-03-08T13:07:12.632Z,8.40
2018-03-08T13:09:40.146Z,8.50
2018-03-08T13:12:07.696Z,8.60
2018-03-08T13:14:35.348Z,8.70
2018-03-08T13:17:02.851Z,8.70
2018-03-08T13:19:31.995Z,8.70
2018-03-08T13:22:00.320Z,8.50
2018-03-08T13:24:28.584Z,8.50
2018-03-08T13:26:56.898Z,8.40
2018-03-08T13:29:24.403Z,8.60
2018-03-08T13:31:51.906Z,8.80
2018-03-08T13:34:19.575Z,8.90
2018-03-08T13:39:20.345Z,8.90
2018-03-08T13:41:48.376Z,8.90
2018-03-08T13:44:15.879Z,9.00
2018-03-08T13:46:43.386Z,9.10
2018-03-08T13:49:22.706Z,9.30
2018-03-08T13:51:51.104Z,9.30
2018-03-08T13:54:18.633Z,9.30
2018-03-08T13:56:47.037Z,9.30
2018-03-08T13:59:14.547Z,9.30
2018-03-08T14:01:42.193Z,9.20
2018-03-08T14:04:09.696Z,9.10
2018-03-08T14:06:37.195Z,9.10
2018-03-08T14:09:04.694Z,9.10
2018-03-08T14:11:32.831Z,9.20
2018-03-08T14:14:00.399Z,9.20
2018-03-08T14:16:27.893Z,9.10
2018-03-08T14:18:55.615Z,9.10
2018-03-08T14:21:23.235Z,9.10
2018-03-08T14:23:50.960Z,9.20
2018-03-08T14:26:18.604Z,9.40
2018-03-08T14:28:46.112Z,9.30
2018-03-08T14:31:13.788Z,9.40
2018-03-08T14:33:41.295Z,9.30
2018-03-08T14:36:08.800Z,9.30
2018-03-08T14:38:36.295Z,9.30
2018-03-08T14:41:03.959Z,9.20
2018-03-08T14:43:31.489Z,9.10
2018-03-08T14:45:58.983Z,9.10
2018-03-08T14:48:26.632Z,9.20
2018-03-08T14:50:54.145Z,9.10
2018-03-08T14:53:21.848Z,9.20
2018-03-08T14:55:49.356Z,9.20
2018-03-08T14:58:16.863Z,9.20
2018-03-08T15:00:44.395Z,9.30
2018-03-08T15:03:11.984Z,9.30
2018-03-08T15:05:39.753Z,9.30
2018-03-08T15:08:07.261Z,9.40
2018-03-08T15:10:34.982Z,9.50
2018-03-08T15:13:02.488Z,9.50
2018-03-08T15:15:29.997Z,9.50
2018-03-08T15:17:57.643Z,9.40
2018-03-08T15:20:25.407Z,9.50
2018-03-08T15:22:53.179Z,9.40
2018-03-08T15:25:20.679Z,9.20
2018-03-08T15:27:48.186Z,9.20
2018-03-08T15:30:15.696Z,9.20
2018-03-08T15:32:43.960Z,9.20
2018-03-08T15:35:11.544Z,9.20
2018-03-08T15:37:40.065Z,9.10
2018-03-08T15:40:07.573Z,9.10
2018-03-08T15:42:35.067Z,9.10
2018-03-08T15:45:02.735Z,9.10
2018-03-08T15:47:30.568Z,9.10
2018-03-08T15:49:58.264Z,9.10
2018-03-08T15:52:25.768Z,9.10
2018-03-08T15:54:53.497Z,9.10
2018-03-08T15:57:21.252Z,9.10
2018-03-08T15:59:48.868Z,9.10
2018-03-08T16:02:30.916Z,9.10
2018-03-08T16:04:58.403Z,9.00
2018-03-08T16:10:33.532Z,8.90
2018-03-08T16:13:01.040Z,8.90
2018-03-08T16:15:28.551Z,8.90
2018-03-08T16:17:56.196Z,8.90
2018-03-08T16:20:23.960Z,8.90
2018-03-08T16:22:51.734Z,8.90
2018-03-08T16:25:19.239Z,8.90
2018-03-08T16:27:46.935Z,8.80
2018-03-08T16:30:14.431Z,8.80
2018-03-08T16:32:42.083Z,8.70
2018-03-08T16:35:09.620Z,8.60
2018-03-08T16:37:37.528Z,8.40
2018-03-08T16:40:06.600Z,8.10
2018-03-08T16:42:34.371Z,8.10
2018-03-08T16:45:01.859Z,8.00
2018-03-08T16:47:29.360Z,7.80
2018-03-08T16:49:56.893Z,7.80
2018-03-08T16:52:24.888Z,7.90
2018-03-08T16:54:52.402Z,8.70
2018-03-08T16:57:20.106Z,9.20
2018-03-08T16:59:47.867Z,10.00
2018-03-08T17:02:15.596Z,10.10
2018-03-08T17:04:43.100Z,10.50
2018-03-08T17:07:10.607Z,10.30
2018-03-08T17:09:38.705Z,10.20
2018-03-08T17:12:06.339Z,10.20
2018-03-08T17:14:33.863Z,9.80
2018-03-08T17:17:01.609Z,9.80
2018-03-08T17:19:29.365Z,10.20
2018-03-08T17:21:56.892Z,9.90
2018-03-08T17:24:24.379Z,8.50
2018-03-08T17:26:51.913Z,7.70
2018-03-08T17:29:19.407Z,7.50
2018-03-08T17:31:46.973Z,7.30
2018-03-08T17:34:14.483Z,7.30
2018-03-08T17:36:42.132Z,7.20
2018-03-08T17:39:09.931Z,7.10
2018-03-08T17:41:37.695Z,6.80
2018-03-08T17:44:06.232Z,6.70
2018-03-08T17:46:34.487Z,6.30
2018-03-08T17:49:01.998Z,6.30
2018-03-08T17:51:30.020Z,6.30
2018-03-08T17:53:58.541Z,6.30
2018-03-08T17:56:26.088Z,6.30
2018-03-08T17:58:53.583Z,6.40
2018-03-08T18:01:21.071Z,6.30
2018-03-08T18:03:48.572Z,6.20
2018-03-08T18:06:16.211Z,6.20
2018-03-08T18:08:43.725Z,6.20
2018-03-08T18:11:11.314Z,6.20
2018-03-08T18:13:39.579Z,6.20
2018-03-08T18:16:07.308Z,6.20
2018-03-08T18:18:34.795Z,6.20
2018-03-08T18:21:02.307Z,6.10
2018-03-08T18:23:30.025Z,6.10
2018-03-08T18:25:57.572Z,6.20
2018-03-08T18:28:25.071Z,6.20
2018-03-08T18:30:52.667Z,6.10
2018-03-08T18:33:20.168Z,6.30
2018-03-08T18:35:47.860Z,6.30
2018-03-08T18:38:15.371Z,6.40
2018-03-08T18:40:42.979Z,6.50
2018-03-08T18:43:10.475Z,6.40
2018-03-08T18:45:37.972Z,6.40
2018-03-08T18:48:05.474Z,6.50
2018-03-08T18:50:32.994Z,6.60
2018-03-08T18:53:00.713Z,6.50
2018-03-08T18:55:28.272Z,6.50
2018-03-08T18:57:55.768Z,6.40
2018-03-08T19:00:23.374Z,6.50
2018-03-08T19:02:50.883Z,6.50
2018-03-08T19:05:19.089Z,6.60
2018-03-08T19:07:46.975Z,6.50
2018-03-08T19:10:14.483Z,6.50
2018-03-08T19:12:42.003Z,6.40
2018-03-08T19:15:09.500Z,6.30
2018-03-08T19:17:37.120Z,6.30
2018-03-08T19:20:04.649Z,6.30
2018-03-08T19:22:32.326Z,6.30
2018-03-08T19:25:00.083Z,6.20
2018-03-08T19:27:27.642Z,6.20
2018-03-08T19:29:55.306Z,6.20
2018-03-08T19:32:22.808Z,6.10
2018-03-08T19:34:50.508Z,6.10
2018-03-08T19:37:18.316Z,6.10
2018-03-08T19:39:46.165Z,6.10
2018-03-08T19:42:13.661Z,6.10
2018-03-08T19:44:42.047Z,6.10
2018-03-08T19:47:09.652Z,6.10
2018-03-08T19:49:37.143Z,6.10
2018-03-08T19:52:04.655Z,6.20
2018-03-08T19:54:32.304Z,6.20
2018-03-08T19:56:59.831Z,6.20
2018-03-08T19:59:27.580Z,6.20
2018-03-08T20:01:55.312Z,6.30
2018-03-08T20:04:23.072Z,6.20
2018-03-08T20:06:50.710Z,6.10
2018-03-08T20:09:18.300Z,6.10
2018-03-08T20:11:45.849Z,6.00
2018-03-08T20:14:13.336Z,6.00
2018-03-08T20:16:40.958Z,6.00
2018-03-08T20:19:08.451Z,6.00
2018-03-08T20:21:36.190Z,6.10
2018-03-08T20:24:03.722Z,6.00
2018-03-08T20:26:31.409Z,6.00
2018-03-08T20:28:58.903Z,6.00
2018-03-08T20:31:26.408Z,5.90
2018-03-08T20:33:53.908Z,5.90
2018-03-08T20:36:21.401Z,5.90
2018-03-08T20:38:48.908Z,6.20
2018-03-08T20:41:16.456Z,6.30
2018-03-08T20:43:44.167Z,6.10
2018-03-08T20:46:11.659Z,5.80
2018-03-08T20:48:39.439Z,5.70
2018-03-08T20:51:06.931Z,5.60
2018-03-08T20:53:34.460Z,5.60
2018-03-08T20:56:01.961Z,5.70
2018-03-08T20:58:30.367Z,5.50
2018-03-08T21:00:57.906Z,5.50
2018-03-08T21:03:25.407Z,5.60
2018-03-08T21:05:52.890Z,5.40
2018-03-08T21:08:20.416Z,5.40
2018-03-08T21:10:48.104Z,5.40
2018-03-08T21:13:15.619Z,5.40
2018-03-08T21:15:43.108Z,5.20
2018-03-08T21:18:10.720Z,5.20
2018-03-08T21:20:38.215Z,5.20
2018-03-08T21:23:05.698Z,5.00
2018-03-08T21:25:33.207Z,5.10
2018-03-08T21:28:00.888Z,5.00
2018-03-08T21:30:28.387Z,5.00
2018-03-08T21:32:56.120Z,5.00
2018-03-08T21:35:24.063Z,4.90
2018-03-08T21:37:51.551Z,4.90
2018-03-08T21:40:19.083Z,4.80
2018-03-08T21:42:46.571Z,4.70
2018-03-08T21:45:14.084Z,4.70
2018-03-08T21:47:41.775Z,4.70
2018-03-08T21:50:09.276Z,4.80
2018-03-08T21:52:36.776Z,6.50
2018-03-08T21:55:04.335Z,5.60
2018-03-08T21:57:31.904Z,5.20
2018-03-08T21:59:59.668Z,5.00
2018-03-08T22:02:27.427Z,4.90
2018-03-08T22:04:55.195Z,4.70
2018-03-08T22:07:22.700Z,4.70
2018-03-08T22:09:50.422Z,4.60
2018-03-08T22:12:17.900Z,4.60
2018-03-08T22:14:45.641Z,4.50
2018-03-08T22:17:13.127Z,4.60
2018-03-08T22:19:40.619Z,4.60
2018-03-08T22:22:08.324Z,4.60
2018-03-08T22:24:35.824Z,4.50
2018-03-08T22:27:03.540Z,4.60
2018-03-08T22:29:31.244Z,4.60
2018-03-08T22:31:58.752Z,4.60
2018-03-08T22:34:26.244Z,4.60
2018-03-08T22:36:54.666Z,4.60
2018-03-08T22:39:22.154Z,4.70
2018-03-08T22:41:49.766Z,4.70
2018-03-08T22:44:17.264Z,4.70
2018-03-08T22:46:44.755Z,4.60
2018-03-08T22:49:12.480Z,4.50
2018-03-08T22:51:39.979Z,4.50
2018-03-08T22:54:07.708Z,4.40
2018-03-08T22:56:35.248Z,4.40
2018-03-08T22:59:02.932Z,4.40
2018-03-08T23:04:51.325Z,4.50
2018-03-08T23:07:18.900Z,4.40
2018-03-08T23:09:47.176Z,4.30
2018-03-08T23:12:15.503Z,4.30
2018-03-08T23:14:42.996Z,4.40
2018-03-08T23:17:10.507Z,4.30
2018-03-08T23:19:38.180Z,4.20
2018-03-08T23:22:05.687Z,4.10
2018-03-08T23:24:33.212Z,4.20
2018-03-08T23:27:00.788Z,4.30
2018-03-08T23:29:28.328Z,4.10
2018-03-08T23:31:55.828Z,4.10
2018-03-08T23:34:23.335Z,4.10
2018-03-08T23:36:50.848Z,4.00
2018-03-08T23:39:18.374Z,4.10
2018-03-08T23:41:45.876Z,4.20
2018-03-08T23:44:13.400Z,4.20
2018-03-08T23:46:40.944Z,4.10
2018-03-08T23:49:08.521Z,4.10
2018-03-08T23:51:36.015Z,4.10
2018-03-08T23:54:04.352Z,4.10
2018-03-08T23:56:31.863Z,4.10
2018-03-08T23:58:59.375Z,4.20
